createdAt,value
2023-01-13T00:00:49.565Z,95.06
2023-01-13T00:01:49.590Z,94.51
2023-01-13T00:02:49.563Z,94.40
2023-01-13T00:03:49.583Z,94.20
2023-01-13T00:04:49.642Z,93.89
2023-01-13T00:05:49.545Z,93.99
2023-01-13T00:06:49.568Z,94.10
2023-01-13T00:07:49.551Z,94.20
2023-01-13T00:08:49.634Z,93.68
2023-01-13T00:09:49.509Z,93.99
2023-01-13T00:10:49.514Z,94.20
2023-01-13T00:11:49.493Z,93.99
2023-01-13T00:12:49.499Z,93.79
2023-01-13T00:13:49.499Z,93.79
2023-01-13T00:14:49.548Z,93.79
2023-01-13T00:15:49.478Z,93.79
2023-01-13T00:16:49.466Z,93.89
2023-01-13T00:17:49.846Z,94.40
2023-01-13T00:18:49.481Z,93.89
2023-01-13T00:19:49.534Z,93.99
2023-01-13T00:20:49.434Z,94.61
2023-01-13T00:21:49.426Z,94.40
2023-01-13T00:22:49.425Z,94.51
2023-01-13T00:23:49.436Z,94.81
2023-01-13T00:24:49.422Z,95.12
2023-01-13T00:25:49.477Z,95.53
2023-01-13T00:26:49.415Z,95.57
2023-01-13T00:27:49.395Z,95.53
2023-01-13T00:28:49.411Z,95.89
2023-01-13T00:29:49.376Z,95.98
2023-01-13T00:30:49.449Z,96.87
2023-01-13T00:31:49.418Z,96.60
2023-01-13T00:32:49.355Z,96.91
2023-01-13T00:33:49.444Z,96.60
2023-01-13T00:34:49.378Z,96.40
2023-01-13T00:35:49.393Z,96.50
2023-01-13T00:36:49.340Z,96.09
2023-01-13T00:37:49.328Z,95.57
2023-01-13T00:38:49.684Z,95.64
2023-01-13T00:39:49.346Z,95.74
2023-01-13T00:40:49.322Z,95.53
2023-01-13T00:41:49.344Z,95.94
2023-01-13T00:42:49.323Z,95.17
2023-01-13T00:43:49.294Z,95.89
2023-01-13T00:44:49.296Z,95.32
2023-01-13T00:45:49.317Z,96.04
2023-01-13T00:46:49.316Z,95.53
2023-01-13T00:47:49.265Z,95.43
2023-01-13T00:48:49.276Z,95.74
2023-01-13T00:49:49.243Z,95.94
2023-01-13T00:50:49.276Z,96.19
2023-01-13T00:51:49.257Z,96.30
2023-01-13T00:52:49.239Z,96.97
2023-01-13T00:53:49.281Z,96.77
2023-01-13T00:54:49.235Z,96.30
2023-01-13T00:55:49.221Z,96.81
2023-01-13T00:56:49.232Z,96.50
2023-01-13T00:57:49.214Z,97.22
2023-01-13T00:58:49.179Z,96.91
2023-01-13T00:59:49.685Z,97.22
2023-01-13T01:00:49.249Z,97.02
2023-01-13T01:01:49.493Z,97.12
2023-01-13T01:02:49.230Z,97.32
2023-01-13T01:03:49.171Z,96.60
2023-01-13T01:04:49.183Z,96.70
2023-01-13T01:05:49.154Z,96.40
2023-01-13T01:06:49.147Z,96.50
2023-01-13T01:07:49.139Z,96.50
2023-01-13T01:08:49.198Z,96.81
2023-01-13T01:09:49.110Z,96.50
2023-01-13T01:10:49.122Z,96.70
2023-01-13T01:11:49.122Z,96.30
2023-01-13T01:12:49.097Z,96.81
2023-01-13T01:13:49.849Z,96.40
2023-01-13T01:14:49.232Z,96.50
2023-01-13T01:15:49.196Z,96.81
2023-01-13T01:16:49.068Z,97.28
2023-01-13T01:17:49.130Z,96.91
2023-01-13T01:18:49.092Z,96.81
2023-01-13T01:19:49.088Z,96.91
2023-01-13T01:20:49.090Z,96.91
2023-01-13T01:21:49.041Z,97.12
2023-01-13T01:22:49.051Z,96.91
2023-01-13T01:23:49.096Z,97.12
2023-01-13T01:24:49.028Z,97.22
2023-01-13T01:25:49.013Z,97.32
2023-01-13T01:26:48.994Z,97.02
2023-01-13T01:27:49.042Z,97.22
2023-01-13T01:28:49.008Z,97.22
2023-01-13T01:29:49.024Z,97.32
2023-01-13T01:30:48.984Z,97.32
2023-01-13T01:31:48.987Z,97.22
2023-01-13T01:32:48.975Z,96.97
2023-01-13T01:33:48.961Z,97.02
2023-01-13T01:34:48.941Z,97.12
2023-01-13T01:35:48.954Z,96.56
2023-01-13T01:36:48.968Z,96.25
2023-01-13T01:37:48.931Z,96.66
2023-01-13T01:38:48.977Z,96.50
2023-01-13T01:39:48.940Z,96.97
2023-01-13T01:40:48.935Z,97.22
2023-01-13T01:41:48.914Z,97.17
2023-01-13T01:42:48.892Z,96.70
2023-01-13T01:43:48.913Z,96.77
2023-01-13T01:44:50.661Z,96.35
2023-01-13T01:45:48.891Z,96.87
2023-01-13T01:46:48.920Z,96.25
2023-01-13T01:47:48.872Z,96.25
2023-01-13T01:48:48.859Z,95.94
2023-01-13T01:49:48.925Z,96.04
2023-01-13T01:50:48.866Z,96.25
2023-01-13T01:51:48.864Z,96.25
2023-01-13T01:52:48.862Z,95.94
2023-01-13T01:53:48.831Z,95.94
2023-01-13T01:54:48.829Z,96.04
2023-01-13T01:55:48.818Z,95.94
2023-01-13T01:56:48.831Z,95.64
2023-01-13T01:57:48.815Z,95.43
2023-01-13T01:58:48.800Z,95.94
2023-01-13T01:59:48.885Z,94.81
2023-01-13T02:00:48.832Z,95.07
2023-01-13T02:01:48.936Z,94.87
2023-01-13T02:02:48.901Z,94.87
2023-01-13T02:03:48.756Z,95.23
2023-01-13T02:04:48.754Z,94.98
2023-01-13T02:05:48.986Z,94.87
2023-01-13T02:06:48.759Z,94.56
2023-01-13T02:07:48.743Z,95.12
2023-01-13T02:08:48.745Z,94.87
2023-01-13T02:09:48.758Z,94.87
2023-01-13T02:10:48.708Z,95.18
2023-01-13T02:11:48.701Z,95.90
2023-01-13T02:12:48.779Z,95.32
2023-01-13T02:13:48.687Z,95.43
2023-01-13T02:14:48.699Z,95.49
2023-01-13T02:15:48.710Z,95.64
2023-01-13T02:16:48.665Z,95.79
2023-01-13T02:17:48.741Z,94.92
2023-01-13T02:18:48.669Z,94.87
2023-01-13T02:19:48.644Z,94.81
2023-01-13T02:20:48.636Z,94.77
2023-01-13T02:21:48.669Z,94.36
2023-01-13T02:22:48.797Z,94.46
2023-01-13T02:23:48.623Z,94.26
2023-01-13T02:24:48.618Z,93.85
2023-01-13T02:25:48.622Z,93.95
2023-01-13T02:26:48.586Z,93.74
2023-01-13T02:27:48.583Z,93.13
2023-01-13T02:28:48.579Z,93.23
2023-01-13T02:29:48.594Z,93.64
2023-01-13T02:30:48.656Z,93.64
2023-01-13T02:31:48.675Z,93.85
2023-01-13T02:32:48.561Z,94.05
2023-01-13T02:33:48.537Z,93.74
2023-01-13T02:34:48.557Z,93.85
2023-01-13T02:35:48.562Z,94.26
2023-01-13T02:36:48.551Z,94.15
2023-01-13T02:37:48.535Z,93.95
2023-01-13T02:38:48.518Z,94.05
2023-01-13T02:39:48.525Z,94.46
2023-01-13T02:40:48.505Z,94.46
2023-01-13T02:41:48.497Z,94.67
2023-01-13T02:42:48.504Z,94.77
2023-01-13T02:43:48.476Z,94.92
2023-01-13T02:44:48.476Z,94.77
2023-01-13T02:45:48.527Z,94.67
2023-01-13T02:46:48.459Z,94.36
2023-01-13T02:47:48.508Z,94.77
2023-01-13T02:48:48.456Z,94.15
2023-01-13T02:49:48.439Z,93.74
2023-01-13T02:50:48.429Z,94.36
2023-01-13T02:51:48.421Z,94.15
2023-01-13T02:52:48.421Z,94.56
2023-01-13T02:53:48.430Z,94.05
2023-01-13T02:54:48.410Z,94.51
2023-01-13T02:55:48.604Z,94.98
2023-01-13T02:56:48.382Z,94.56
2023-01-13T02:57:48.389Z,94.77
2023-01-13T02:58:48.374Z,94.15
2023-01-13T02:59:48.393Z,94.05
2023-01-13T03:00:48.468Z,93.95
2023-01-13T03:01:48.503Z,93.74
2023-01-13T03:02:48.478Z,93.23
2023-01-13T03:03:48.369Z,92.61
2023-01-13T03:04:48.370Z,92.61
2023-01-13T03:05:48.349Z,92.27
2023-01-13T03:06:48.605Z,92.72
2023-01-13T03:07:48.347Z,92.57
2023-01-13T03:08:48.335Z,92.61
2023-01-13T03:09:48.318Z,92.61
2023-01-13T03:10:48.306Z,92.51
2023-01-13T03:11:48.283Z,92.88
2023-01-13T03:12:48.328Z,92.57
2023-01-13T03:13:48.278Z,93.23
2023-01-13T03:14:48.294Z,92.72
2023-01-13T03:15:48.290Z,92.51
2023-01-13T03:16:48.314Z,92.72
2023-01-13T03:17:48.259Z,92.72
2023-01-13T03:18:48.254Z,92.36
2023-01-13T03:19:48.333Z,92.88
2023-01-13T03:20:48.262Z,91.86
2023-01-13T03:21:48.234Z,92.47
2023-01-13T03:22:48.298Z,92.31
2023-01-13T03:23:48.247Z,93.08
2023-01-13T03:24:48.221Z,92.36
2023-01-13T03:25:48.202Z,92.36
2023-01-13T03:26:48.228Z,93.08
2023-01-13T03:27:48.185Z,93.13
2023-01-13T03:28:48.185Z,92.93
2023-01-13T03:29:48.193Z,92.27
2023-01-13T03:30:48.265Z,93.60
2023-01-13T03:31:48.178Z,93.64
2023-01-13T03:32:48.149Z,93.85
2023-01-13T03:33:48.126Z,94.15
2023-01-13T03:34:48.189Z,94.36
2023-01-13T03:35:48.167Z,93.54
2023-01-13T03:36:48.114Z,93.95
2023-01-13T03:37:48.139Z,93.13
2023-01-13T03:38:48.105Z,92.46
2023-01-13T03:39:48.084Z,93.17
2023-01-13T03:40:48.167Z,93.63
2023-01-13T03:41:48.084Z,93.32
2023-01-13T03:42:48.088Z,93.26
2023-01-13T03:43:48.078Z,94.08
2023-01-13T03:44:48.846Z,94.70
2023-01-13T03:45:48.084Z,94.39
2023-01-13T03:46:48.082Z,95.01
2023-01-13T03:47:48.407Z,94.39
2023-01-13T03:48:48.057Z,94.43
2023-01-13T03:49:48.045Z,94.33
2023-01-13T03:50:48.022Z,95.20
2023-01-13T03:51:48.052Z,94.95
2023-01-13T03:52:48.020Z,94.74
2023-01-13T03:53:48.016Z,95.15
2023-01-13T03:54:48.010Z,95.71
2023-01-13T03:55:47.990Z,95.71
2023-01-13T03:56:48.847Z,95.71
2023-01-13T03:57:48.035Z,95.36
2023-01-13T03:58:47.965Z,96.02
2023-01-13T03:59:47.951Z,95.55
2023-01-13T04:00:47.979Z,95.67
2023-01-13T04:01:48.133Z,95.61
2023-01-13T04:02:48.051Z,95.30
2023-01-13T04:03:48.039Z,95.46
2023-01-13T04:04:47.937Z,95.40
2023-01-13T04:05:47.958Z,94.58
2023-01-13T04:06:47.926Z,95.09
2023-01-13T04:07:47.930Z,94.58
2023-01-13T04:08:47.905Z,94.99
2023-01-13T04:09:47.915Z,93.96
2023-01-13T04:10:47.899Z,92.63
2023-01-13T04:11:47.889Z,93.44
2023-01-13T04:12:47.882Z,92.52
2023-01-13T04:13:47.852Z,92.93
2023-01-13T04:14:47.875Z,93.24
2023-01-13T04:15:47.946Z,93.04
2023-01-13T04:16:47.889Z,93.04
2023-01-13T04:17:47.914Z,93.96
2023-01-13T04:18:47.841Z,92.83
2023-01-13T04:19:47.844Z,92.73
2023-01-13T04:20:47.930Z,93.04
2023-01-13T04:21:47.820Z,92.52
2023-01-13T04:22:47.794Z,92.21
2023-01-13T04:23:47.838Z,92.73
2023-01-13T04:24:47.844Z,92.11
2023-01-13T04:25:47.810Z,92.63
2023-01-13T04:26:47.784Z,90.98
2023-01-13T04:27:47.817Z,91.60
2023-01-13T04:28:47.766Z,90.47
2023-01-13T04:29:47.775Z,90.88
2023-01-13T04:30:47.892Z,90.36
2023-01-13T04:31:47.751Z,90.67
2023-01-13T04:32:47.747Z,90.67
2023-01-13T04:33:47.731Z,90.88
2023-01-13T04:34:47.745Z,90.88
2023-01-13T04:35:47.727Z,91.29
2023-01-13T04:36:47.699Z,91.08
2023-01-13T04:37:47.704Z,91.49
2023-01-13T04:38:47.694Z,91.29
2023-01-13T04:39:47.729Z,90.88
2023-01-13T04:40:47.697Z,90.78
2023-01-13T04:41:47.691Z,90.16
2023-01-13T04:42:47.789Z,90.16
2023-01-13T04:43:47.721Z,89.95
2023-01-13T04:44:47.659Z,90.67
2023-01-13T04:45:48.088Z,90.98
2023-01-13T04:46:47.644Z,90.47
2023-01-13T04:47:47.657Z,90.67
2023-01-13T04:48:47.640Z,90.47
2023-01-13T04:49:47.609Z,91.08
2023-01-13T04:50:47.641Z,91.70
2023-01-13T04:51:47.650Z,92.25
2023-01-13T04:52:47.608Z,92.87
2023-01-13T04:53:47.583Z,93.29
2023-01-13T04:54:47.587Z,92.67
2023-01-13T04:55:47.627Z,92.16
2023-01-13T04:56:47.588Z,93.29
2023-01-13T04:57:47.597Z,92.36
2023-01-13T04:58:47.596Z,92.71
2023-01-13T04:59:47.559Z,92.61
2023-01-13T05:00:47.573Z,91.17
2023-01-13T05:01:47.613Z,91.17
2023-01-13T05:02:47.544Z,91.68
2023-01-13T05:03:47.539Z,91.33
2023-01-13T05:04:47.604Z,91.06
2023-01-13T05:05:47.539Z,91.38
2023-01-13T05:06:47.552Z,91.27
2023-01-13T05:07:47.517Z,91.06
2023-01-13T05:08:47.483Z,90.66
2023-01-13T05:09:47.488Z,90.45
2023-01-13T05:10:47.491Z,89.73
2023-01-13T05:11:47.493Z,89.15
2023-01-13T05:12:47.485Z,89.22
2023-01-13T05:13:47.477Z,89.97
2023-01-13T05:14:47.465Z,88.43
2023-01-13T05:15:47.580Z,89.97
2023-01-13T05:16:47.443Z,88.43
2023-01-13T05:17:47.449Z,88.43
2023-01-13T05:18:47.449Z,88.12
2023-01-13T05:19:47.427Z,89.36
2023-01-13T05:20:47.453Z,88.84
2023-01-13T05:21:47.406Z,89.15
2023-01-13T05:22:47.433Z,89.05
2023-01-13T05:23:47.408Z,87.81
2023-01-13T05:24:47.395Z,86.99
2023-01-13T05:25:47.451Z,87.19
2023-01-13T05:26:47.388Z,88.17
2023-01-13T05:27:47.419Z,88.57
2023-01-13T05:28:47.392Z,88.17
2023-01-13T05:29:47.352Z,86.82
2023-01-13T05:30:47.490Z,86.99
2023-01-13T05:31:47.351Z,87.85
2023-01-13T05:32:47.357Z,87.44
2023-01-13T05:33:47.353Z,87.34
2023-01-13T05:34:47.345Z,86.61
2023-01-13T05:35:47.572Z,87.85
2023-01-13T05:36:47.336Z,87.44
2023-01-13T05:37:47.331Z,86.41
2023-01-13T05:38:47.320Z,88.06
2023-01-13T05:39:47.317Z,87.44
2023-01-13T05:40:47.319Z,88.37
2023-01-13T05:41:47.275Z,88.06
2023-01-13T05:42:47.273Z,87.85
2023-01-13T05:43:47.330Z,88.06
2023-01-13T05:44:47.293Z,88.47
2023-01-13T05:45:47.257Z,87.54
2023-01-13T05:46:47.281Z,86.72
2023-01-13T05:47:47.234Z,88.37
2023-01-13T05:48:47.276Z,88.10
2023-01-13T05:49:47.233Z,88.06
2023-01-13T05:50:47.219Z,88.37
2023-01-13T05:51:47.221Z,88.17
2023-01-13T05:52:47.208Z,87.90
2023-01-13T05:53:47.223Z,88.47
2023-01-13T05:54:47.219Z,88.72
2023-01-13T05:55:47.237Z,88.06
2023-01-13T05:56:47.193Z,88.06
2023-01-13T05:57:47.232Z,87.75
2023-01-13T05:58:47.302Z,87.59
2023-01-13T05:59:47.180Z,87.65
2023-01-13T06:00:47.200Z,86.93
2023-01-13T06:01:47.184Z,86.31
2023-01-13T06:02:47.162Z,86.31
2023-01-13T06:03:47.183Z,85.89
2023-01-13T06:04:47.190Z,86.72
2023-01-13T06:05:47.137Z,86.66
2023-01-13T06:06:47.141Z,86.72
2023-01-13T06:07:47.110Z,86.61
2023-01-13T06:08:47.148Z,86.82
2023-01-13T06:09:47.122Z,87.44
2023-01-13T06:10:47.122Z,86.72
2023-01-13T06:11:47.128Z,86.93
2023-01-13T06:12:47.128Z,87.44
2023-01-13T06:13:47.073Z,86.41
2023-01-13T06:14:47.112Z,87.65
2023-01-13T06:15:47.151Z,87.34
2023-01-13T06:16:47.073Z,87.85
2023-01-13T06:17:47.088Z,88.06
2023-01-13T06:18:47.289Z,87.34
2023-01-13T06:19:47.057Z,87.54
2023-01-13T06:20:47.111Z,86.00
2023-01-13T06:21:47.052Z,86.41
2023-01-13T06:22:47.050Z,86.52
2023-01-13T06:23:47.046Z,86.61
2023-01-13T06:24:47.027Z,86.61
2023-01-13T06:25:47.011Z,85.69
2023-01-13T06:26:47.033Z,85.69
2023-01-13T06:27:46.983Z,85.79
2023-01-13T06:28:47.022Z,86.00
2023-01-13T06:29:46.972Z,85.59
2023-01-13T06:30:46.978Z,86.82
2023-01-13T06:31:47.109Z,86.45
2023-01-13T06:32:46.998Z,86.82
2023-01-13T06:33:46.966Z,87.03
2023-01-13T06:34:46.995Z,86.41
2023-01-13T06:35:46.940Z,87.03
2023-01-13T06:36:46.972Z,87.75
2023-01-13T06:37:46.939Z,88.06
2023-01-13T06:38:46.929Z,88.57
2023-01-13T06:39:46.929Z,87.54
2023-01-13T06:40:46.949Z,87.54
2023-01-13T06:41:46.958Z,87.85
2023-01-13T06:42:46.923Z,87.85
2023-01-13T06:43:46.903Z,86.93
2023-01-13T06:44:47.049Z,88.68
2023-01-13T06:45:46.909Z,87.75
2023-01-13T06:46:46.946Z,88.17
2023-01-13T06:47:46.912Z,87.99
2023-01-13T06:48:46.992Z,87.96
2023-01-13T06:49:46.922Z,88.37
2023-01-13T06:50:46.887Z,87.34
2023-01-13T06:51:46.897Z,88.20
2023-01-13T06:52:46.858Z,87.38
2023-01-13T06:53:46.895Z,86.82
2023-01-13T06:54:46.880Z,86.97
2023-01-13T06:55:46.832Z,86.97
2023-01-13T06:56:46.901Z,86.87
2023-01-13T06:57:46.798Z,85.94
2023-01-13T06:58:46.814Z,85.73
2023-01-13T06:59:46.815Z,85.63
2023-01-13T07:00:46.875Z,85.83
2023-01-13T07:01:46.984Z,85.36
2023-01-13T07:02:46.896Z,85.01
2023-01-13T07:03:46.884Z,84.94
2023-01-13T07:04:46.895Z,85.31
2023-01-13T07:05:46.776Z,85.05
2023-01-13T07:06:46.786Z,85.31
2023-01-13T07:07:46.752Z,85.46
2023-01-13T07:08:46.747Z,85.22
2023-01-13T07:09:46.745Z,85.15
2023-01-13T07:10:46.749Z,85.36
2023-01-13T07:11:46.806Z,85.97
2023-01-13T07:12:46.753Z,85.36
2023-01-13T07:13:46.736Z,85.09
2023-01-13T07:14:46.754Z,86.02
2023-01-13T07:15:46.691Z,85.36
2023-01-13T07:16:46.802Z,85.67
2023-01-13T07:17:46.684Z,85.05
2023-01-13T07:18:47.002Z,85.81
2023-01-13T07:19:46.725Z,85.97
2023-01-13T07:20:46.783Z,85.77
2023-01-13T07:21:46.646Z,85.39
2023-01-13T07:22:46.685Z,85.36
2023-01-13T07:23:46.651Z,85.97
2023-01-13T07:24:46.631Z,85.46
2023-01-13T07:25:46.665Z,85.46
2023-01-13T07:26:46.652Z,85.87
2023-01-13T07:27:46.615Z,85.46
2023-01-13T07:28:46.639Z,85.97
2023-01-13T07:29:46.600Z,85.46
2023-01-13T07:30:46.619Z,85.97
2023-01-13T07:31:49.739Z,85.77
2023-01-13T07:32:46.615Z,85.97
2023-01-13T07:33:46.605Z,86.39
2023-01-13T07:34:46.587Z,85.87
2023-01-13T07:35:46.580Z,85.15
2023-01-13T07:36:46.610Z,85.46
2023-01-13T07:37:46.605Z,85.77
2023-01-13T07:38:46.543Z,85.87
2023-01-13T07:39:46.562Z,85.77
2023-01-13T07:40:46.538Z,85.36
2023-01-13T07:41:46.563Z,85.77
2023-01-13T07:42:46.531Z,85.36
2023-01-13T07:43:46.501Z,84.74
2023-01-13T07:44:46.532Z,85.46
2023-01-13T07:45:46.561Z,85.05
2023-01-13T07:46:46.513Z,85.05
2023-01-13T07:47:46.490Z,85.09
2023-01-13T07:48:46.472Z,84.84
2023-01-13T07:49:46.487Z,84.36
2023-01-13T07:50:46.502Z,84.33
2023-01-13T07:51:46.510Z,84.53
2023-01-13T07:52:46.460Z,84.22
2023-01-13T07:53:46.463Z,84.47
2023-01-13T07:54:46.450Z,84.74
2023-01-13T07:55:46.509Z,83.81
2023-01-13T07:56:46.436Z,83.61
2023-01-13T07:57:46.426Z,83.50
2023-01-13T07:58:46.422Z,83.91
2023-01-13T07:59:46.410Z,83.75
2023-01-13T08:00:46.477Z,84.01
2023-01-13T08:01:46.602Z,83.61
2023-01-13T08:02:46.434Z,83.95
2023-01-13T08:03:46.395Z,83.91
2023-01-13T08:04:46.386Z,83.64
2023-01-13T08:05:46.391Z,83.95
2023-01-13T08:06:46.375Z,83.71
2023-01-13T08:07:46.423Z,83.71
2023-01-13T08:08:46.353Z,83.81
2023-01-13T08:09:46.389Z,83.40
2023-01-13T08:10:46.378Z,83.29
2023-01-13T08:11:46.334Z,82.84
2023-01-13T08:12:53.798Z,82.64
2023-01-13T08:13:47.325Z,82.95
2023-01-13T08:14:46.309Z,82.95
2023-01-13T08:15:46.352Z,82.64
2023-01-13T08:16:46.418Z,82.40
2023-01-13T08:17:46.303Z,82.50
2023-01-13T08:18:46.311Z,82.70
2023-01-13T08:19:46.275Z,83.01
2023-01-13T08:20:46.292Z,82.29
2023-01-13T08:21:46.278Z,82.74
2023-01-13T08:22:46.280Z,82.40
2023-01-13T08:23:46.349Z,82.91
2023-01-13T08:24:46.323Z,82.91
2023-01-13T08:25:46.275Z,83.18
2023-01-13T08:26:46.306Z,82.53
2023-01-13T08:27:46.264Z,82.32
2023-01-13T08:28:46.277Z,80.84
2023-01-13T08:29:46.240Z,81.11
2023-01-13T08:30:46.317Z,80.08
2023-01-13T08:31:46.219Z,79.77
2023-01-13T08:32:46.211Z,79.43
2023-01-13T08:33:46.185Z,79.43
2023-01-13T08:34:46.196Z,79.94
2023-01-13T08:35:46.224Z,79.84
2023-01-13T08:36:46.179Z,79.88
2023-01-13T08:37:46.190Z,78.50
2023-01-13T08:38:46.191Z,78.98
2023-01-13T08:39:46.169Z,79.02
2023-01-13T08:40:46.200Z,78.40
2023-01-13T08:41:46.144Z,79.63
2023-01-13T08:42:48.502Z,79.53
2023-01-13T08:43:46.166Z,79.53
2023-01-13T08:44:46.152Z,79.43
2023-01-13T08:45:46.254Z,80.15
2023-01-13T08:46:46.125Z,80.15
2023-01-13T08:47:46.950Z,80.05
2023-01-13T08:48:46.096Z,79.63
2023-01-13T08:49:46.097Z,79.43
2023-01-13T08:50:46.101Z,79.74
2023-01-13T08:51:46.091Z,80.15
2023-01-13T08:52:46.088Z,80.39
2023-01-13T08:53:46.065Z,81.11
2023-01-13T08:54:46.092Z,80.70
2023-01-13T08:55:46.106Z,81.11
2023-01-13T08:56:46.130Z,80.70
2023-01-13T08:57:46.323Z,79.84
2023-01-13T08:58:46.037Z,79.91
2023-01-13T08:59:46.015Z,78.47
2023-01-13T09:00:46.044Z,79.39
2023-01-13T09:01:46.315Z,77.85
2023-01-13T09:02:46.039Z,78.12
2023-01-13T09:03:46.017Z,79.93
2023-01-13T09:04:46.087Z,77.88
2023-01-13T09:05:45.988Z,77.37
2023-01-13T09:06:45.987Z,77.47
2023-01-13T09:07:45.983Z,77.30
2023-01-13T09:08:46.014Z,77.71
2023-01-13T09:09:45.938Z,77.71
2023-01-13T09:10:45.943Z,79.56
2023-01-13T09:11:45.975Z,77.88
2023-01-13T09:12:45.947Z,77.40
2023-01-13T09:13:45.972Z,77.78
2023-01-13T09:14:45.985Z,77.78
2023-01-13T09:15:46.056Z,77.33
2023-01-13T09:16:45.919Z,77.03
2023-01-13T09:17:45.927Z,76.37
2023-01-13T09:18:45.923Z,76.27
2023-01-13T09:19:45.886Z,74.70
2023-01-13T09:20:45.914Z,74.73
2023-01-13T09:21:45.981Z,74.90
2023-01-13T09:22:45.888Z,74.70
2023-01-13T09:23:45.871Z,75.21
2023-01-13T09:24:45.905Z,75.35
2023-01-13T09:25:45.867Z,74.94
2023-01-13T09:26:45.965Z,75.56
2023-01-13T09:27:45.900Z,75.21
2023-01-13T09:28:45.846Z,74.36
2023-01-13T09:29:45.823Z,73.57
2023-01-13T09:30:45.855Z,73.44
2023-01-13T09:31:45.880Z,72.52
2023-01-13T09:32:45.862Z,73.54
2023-01-13T09:33:45.788Z,72.82
2023-01-13T09:34:45.776Z,71.80
2023-01-13T09:35:45.788Z,71.11
2023-01-13T09:36:45.774Z,71.01
2023-01-13T09:37:45.795Z,72.00
2023-01-13T09:38:45.792Z,72.52
2023-01-13T09:39:45.785Z,72.52
2023-01-13T09:40:45.795Z,72.00
2023-01-13T09:41:45.748Z,72.41
2023-01-13T09:42:45.762Z,71.28
2023-01-13T09:43:45.757Z,72.55
2023-01-13T09:44:45.724Z,73.36
2023-01-13T09:45:45.699Z,73.54
2023-01-13T09:46:45.771Z,71.66
2023-01-13T09:47:45.700Z,70.94
2023-01-13T09:48:45.692Z,71.42
2023-01-13T09:49:45.736Z,72.11
2023-01-13T09:50:45.683Z,70.88
2023-01-13T09:51:45.805Z,70.29
2023-01-13T09:52:45.748Z,70.50
2023-01-13T09:53:45.634Z,70.43
2023-01-13T09:54:45.682Z,71.90
2023-01-13T09:55:45.656Z,72.20
2023-01-13T09:56:45.627Z,73.23
2023-01-13T09:57:45.642Z,73.33
2023-01-13T09:58:45.659Z,72.52
2023-01-13T09:59:45.628Z,72.75
2023-01-13T10:00:45.630Z,72.92
2023-01-13T10:01:45.607Z,72.55
2023-01-13T10:02:45.600Z,73.88
2023-01-13T10:03:45.655Z,73.36
2023-01-13T10:04:45.655Z,73.03
2023-01-13T10:05:45.578Z,73.64
2023-01-13T10:06:45.579Z,73.47
2023-01-13T10:07:45.734Z,71.80
2023-01-13T10:08:45.564Z,72.34
2023-01-13T10:09:45.568Z,72.38
2023-01-13T10:10:45.549Z,72.48
2023-01-13T10:11:45.606Z,72.99
2023-01-13T10:12:45.533Z,72.61
2023-01-13T10:13:45.591Z,73.74
2023-01-13T10:14:45.508Z,73.47
2023-01-13T10:15:45.645Z,74.53
2023-01-13T10:16:45.505Z,75.04
2023-01-13T10:17:45.478Z,75.79
2023-01-13T10:18:45.490Z,75.38
2023-01-13T10:19:45.514Z,74.49
2023-01-13T10:20:45.491Z,75.01
2023-01-13T10:21:45.441Z,76.17
2023-01-13T10:22:45.466Z,76.89
2023-01-13T10:23:45.467Z,77.00
2023-01-13T10:24:45.443Z,76.79
2023-01-13T10:25:45.629Z,76.79
2023-01-13T10:26:45.450Z,77.40
2023-01-13T10:27:45.416Z,77.00
2023-01-13T10:28:45.463Z,76.93
2023-01-13T10:29:45.443Z,77.75
2023-01-13T10:30:45.411Z,78.06
2023-01-13T10:31:45.507Z,78.16
2023-01-13T10:32:45.400Z,77.55
2023-01-13T10:33:45.442Z,77.44
2023-01-13T10:34:45.386Z,77.95
2023-01-13T10:35:45.375Z,77.44
2023-01-13T10:36:45.358Z,77.71
2023-01-13T10:37:45.347Z,76.68
2023-01-13T10:38:45.354Z,76.79
2023-01-13T10:39:45.321Z,75.93
2023-01-13T10:40:45.358Z,76.58
2023-01-13T10:41:45.304Z,75.42
2023-01-13T10:42:45.320Z,76.14
2023-01-13T10:43:45.330Z,76.14
2023-01-13T10:44:45.297Z,76.04
2023-01-13T10:45:45.287Z,76.45
2023-01-13T10:46:45.350Z,76.75
2023-01-13T10:47:45.309Z,74.80
2023-01-13T10:48:45.267Z,74.80
2023-01-13T10:49:45.260Z,75.42
2023-01-13T10:50:45.261Z,74.49
2023-01-13T10:51:45.267Z,74.84
2023-01-13T10:52:45.243Z,74.84
2023-01-13T10:53:45.302Z,74.84
2023-01-13T10:54:45.228Z,74.46
2023-01-13T10:55:45.228Z,75.08
2023-01-13T10:56:45.218Z,75.45
2023-01-13T10:57:45.213Z,76.38
2023-01-13T10:58:45.183Z,76.38
2023-01-13T10:59:45.226Z,75.35
2023-01-13T11:00:45.192Z,74.53
2023-01-13T11:01:45.351Z,73.30
2023-01-13T11:02:45.237Z,73.64
2023-01-13T11:03:45.218Z,74.84
2023-01-13T11:04:45.302Z,74.36
2023-01-13T11:05:45.178Z,75.59
2023-01-13T11:06:45.142Z,74.53
2023-01-13T11:07:45.132Z,74.32
2023-01-13T11:08:45.342Z,74.46
2023-01-13T11:09:45.134Z,74.63
2023-01-13T11:10:45.136Z,74.43
2023-01-13T11:11:45.131Z,74.43
2023-01-13T11:12:45.102Z,73.06
2023-01-13T11:13:45.090Z,71.83
2023-01-13T11:14:45.111Z,71.14
2023-01-13T11:15:45.193Z,72.03
2023-01-13T11:16:53.095Z,72.99
2023-01-13T11:17:46.078Z,72.96
2023-01-13T11:18:45.073Z,73.27
2023-01-13T11:19:45.102Z,71.45
2023-01-13T11:20:45.058Z,72.17
2023-01-13T11:21:45.056Z,72.34
2023-01-13T11:22:45.058Z,72.58
2023-01-13T11:23:45.041Z,71.86
2023-01-13T11:24:45.042Z,72.68
2023-01-13T11:25:45.023Z,73.30
2023-01-13T11:26:45.037Z,72.27
2023-01-13T11:27:44.996Z,72.68
2023-01-13T11:28:45.017Z,72.55
2023-01-13T11:29:44.999Z,70.50
2023-01-13T11:30:44.986Z,71.83
2023-01-13T11:31:45.062Z,72.55
2023-01-13T11:32:44.983Z,71.62
2023-01-13T11:33:44.964Z,71.11
2023-01-13T11:34:45.015Z,69.43
2023-01-13T11:35:45.004Z,68.92
2023-01-13T11:36:44.959Z,70.05
2023-01-13T11:37:44.967Z,69.10
2023-01-13T11:38:44.938Z,68.51
2023-01-13T11:39:44.924Z,69.54
2023-01-13T11:40:44.942Z,69.64
2023-01-13T11:41:44.915Z,70.67
2023-01-13T11:42:45.008Z,70.05
2023-01-13T11:43:44.904Z,70.26
2023-01-13T11:44:44.889Z,69.47
2023-01-13T11:45:44.870Z,70.70
2023-01-13T11:46:44.945Z,69.26
2023-01-13T11:47:44.929Z,69.47
2023-01-13T11:48:44.957Z,68.75
2023-01-13T11:49:44.862Z,70.08
2023-01-13T11:50:44.845Z,70.60
2023-01-13T11:51:44.870Z,69.57
2023-01-13T11:52:44.922Z,70.29
2023-01-13T11:53:44.851Z,68.82
2023-01-13T11:54:44.842Z,69.13
2023-01-13T11:55:44.821Z,69.23
2023-01-13T11:56:44.811Z,68.99
2023-01-13T11:57:44.806Z,69.17
2023-01-13T11:58:50.592Z,69.06
2023-01-13T11:59:45.823Z,69.85
2023-01-13T12:00:44.797Z,67.19
2023-01-13T12:01:44.828Z,67.32
2023-01-13T12:02:44.796Z,67.52
2023-01-13T12:03:44.788Z,67.25
2023-01-13T12:04:44.768Z,67.56
2023-01-13T12:05:44.826Z,66.94
2023-01-13T12:06:44.764Z,67.79
2023-01-13T12:07:44.748Z,68.00
2023-01-13T12:08:44.750Z,67.69
2023-01-13T12:09:44.787Z,68.62
2023-01-13T12:10:44.771Z,68.62
2023-01-13T12:11:44.768Z,69.95
2023-01-13T12:12:44.714Z,68.85
2023-01-13T12:13:44.703Z,67.38
2023-01-13T12:14:44.710Z,67.62
2023-01-13T12:15:44.665Z,67.59
2023-01-13T12:16:44.841Z,67.59
2023-01-13T12:17:44.669Z,67.69
2023-01-13T12:18:44.674Z,67.18
2023-01-13T12:19:44.644Z,66.77
2023-01-13T12:20:44.652Z,66.56
2023-01-13T12:21:44.631Z,67.18
2023-01-13T12:22:44.661Z,66.67
2023-01-13T12:23:44.633Z,66.97
2023-01-13T12:24:44.647Z,67.28
2023-01-13T12:25:44.609Z,68.00
2023-01-13T12:26:44.589Z,67.38
2023-01-13T12:27:47.204Z,67.59
2023-01-13T12:28:44.663Z,67.28
2023-01-13T12:29:44.575Z,66.97
2023-01-13T12:30:44.570Z,66.39
2023-01-13T12:31:44.631Z,67.21
2023-01-13T12:32:44.567Z,67.21
2023-01-13T12:33:44.844Z,67.38
2023-01-13T12:34:44.590Z,67.32
2023-01-13T12:35:44.600Z,70.05
2023-01-13T12:36:44.533Z,69.95
2023-01-13T12:37:44.523Z,68.41
2023-01-13T12:38:44.538Z,67.90
2023-01-13T12:39:44.532Z,69.81
2023-01-13T12:40:44.547Z,67.94
2023-01-13T12:41:44.480Z,67.43
2023-01-13T12:42:44.490Z,65.86
2023-01-13T12:43:44.497Z,66.34
2023-01-13T12:44:44.480Z,64.80
2023-01-13T12:45:44.516Z,65.28
2023-01-13T12:46:44.479Z,65.31
2023-01-13T12:47:44.449Z,63.85
2023-01-13T12:48:44.464Z,64.50
2023-01-13T12:49:44.463Z,63.98
2023-01-13T12:50:44.500Z,63.91
2023-01-13T12:51:44.586Z,64.01
2023-01-13T12:52:44.441Z,65.14